createdAt,value
2023-02-01T00:02:17.343Z,19.10
2023-02-01T00:04:49.844Z,19.05
2023-02-01T00:07:19.114Z,19.11
2023-02-01T00:09:48.318Z,19.11
2023-02-01T00:12:17.631Z,19.08
2023-02-01T00:14:47.152Z,19.09
2023-02-01T00:17:16.412Z,19.07
2023-02-01T00:19:45.679Z,19.06
2023-02-01T00:22:15.037Z,19.04
2023-02-01T00:24:45.087Z,19.05
2023-02-01T00:27:15.873Z,19.05
2023-02-01T00:29:46.207Z,19.03
2023-02-01T00:32:15.530Z,19.03
2023-02-01T00:34:44.902Z,19.00
2023-02-01T00:37:14.137Z,18.99
2023-02-01T00:39:43.434Z,19.00
2023-02-01T00:42:12.842Z,19.00
2023-02-01T00:44:42.160Z,19.00
2023-02-01T00:47:12.268Z,19.06
2023-02-01T00:49:42.278Z,19.02
2023-02-01T00:52:12.262Z,18.98
2023-02-01T00:54:41.520Z,19.00
2023-02-01T00:57:11.371Z,18.71
2023-02-01T00:59:41.410Z,18.64
2023-02-01T01:02:12.621Z,18.72
2023-02-01T01:04:42.524Z,18.88
2023-02-01T01:07:12.549Z,19.12
2023-02-01T01:09:42.478Z,19.57
2023-02-01T01:12:12.475Z,19.64
2023-02-01T01:14:42.266Z,19.56
2023-02-01T01:17:14.981Z,19.52
2023-02-01T01:19:44.330Z,19.46
2023-02-01T01:22:13.591Z,19.43
2023-02-01T01:24:42.909Z,19.39
2023-02-01T01:27:13.144Z,19.34
2023-02-01T01:29:42.353Z,19.31
2023-02-01T01:32:12.667Z,19.28
2023-02-01T01:34:42.545Z,19.22
2023-02-01T01:37:12.442Z,19.20
2023-02-01T01:39:42.827Z,19.18
2023-02-01T01:42:15.494Z,19.15
2023-02-01T01:45:01.161Z,19.10
2023-02-01T01:47:30.569Z,19.05
2023-02-01T01:50:00.215Z,19.02
2023-02-01T01:52:29.682Z,19.02
2023-02-01T01:54:59.798Z,19.01
2023-02-01T01:57:35.520Z,19.01
2023-02-01T02:00:06.150Z,18.90
2023-02-01T02:02:35.619Z,18.95
2023-02-01T02:05:05.057Z,19.00
2023-02-01T02:10:03.937Z,19.09
2023-02-01T02:12:35.044Z,19.11
2023-02-01T02:15:05.450Z,19.11
2023-02-01T02:17:54.054Z,19.13
2023-02-01T02:20:43.765Z,19.15
2023-02-01T02:23:14.561Z,19.17
2023-02-01T02:26:00.390Z,19.20
2023-02-01T02:28:40.534Z,19.21
2023-02-01T02:31:28.318Z,19.22
2023-02-01T02:33:58.934Z,19.24
2023-02-01T02:36:44.676Z,19.27
2023-02-01T02:39:29.886Z,19.27
2023-02-01T02:42:27.206Z,19.27
2023-02-01T02:45:18.441Z,19.29
2023-02-01T02:48:01.408Z,19.30
2023-02-01T02:50:58.034Z,19.29
2023-02-01T02:53:52.062Z,19.31
2023-02-01T02:56:38.825Z,19.30
2023-02-01T02:59:27.854Z,19.30
2023-02-01T03:02:14.970Z,19.30
2023-02-01T03:04:46.572Z,19.30
2023-02-01T03:07:20.229Z,19.29
2023-02-01T03:09:51.037Z,19.42
2023-02-01T03:12:37.565Z,19.47
2023-02-01T03:15:08.097Z,19.52
2023-02-01T03:17:39.551Z,19.49
2023-02-01T03:20:09.232Z,19.44
2023-02-01T03:22:39.013Z,19.42
2023-02-01T03:25:14.146Z,19.38
2023-02-01T03:27:49.705Z,19.36
2023-02-01T03:30:26.411Z,19.35
2023-02-01T03:33:03.611Z,19.35
2023-02-01T03:35:37.282Z,19.42
2023-02-01T03:38:07.824Z,19.47
2023-02-01T03:40:37.568Z,19.50
2023-02-01T03:43:07.551Z,19.46
2023-02-01T03:45:37.853Z,19.43
2023-02-01T03:48:07.689Z,19.71
2023-02-01T03:50:38.160Z,19.92
2023-02-01T03:53:08.520Z,19.94
2023-02-01T03:55:37.954Z,19.97
2023-02-01T03:58:08.657Z,19.99
2023-02-01T04:00:40.255Z,20.01
2023-02-01T04:03:10.174Z,20.06
2023-02-01T04:05:40.191Z,20.02
2023-02-01T04:08:10.058Z,19.85
2023-02-01T04:10:40.077Z,19.75
2023-02-01T04:13:10.161Z,19.67
2023-02-01T04:15:40.024Z,19.63
2023-02-01T04:18:10.368Z,19.57
2023-02-01T04:20:40.479Z,19.54
2023-02-01T04:23:10.060Z,19.52
2023-02-01T04:25:40.529Z,19.48
2023-02-01T04:28:10.193Z,19.47
2023-02-01T04:30:40.102Z,19.46
2023-02-01T04:33:10.042Z,19.45
2023-02-01T04:35:39.995Z,19.37
2023-02-01T04:38:10.134Z,19.34
2023-02-01T04:40:40.003Z,19.33
2023-02-01T04:43:10.105Z,19.25
2023-02-01T04:45:40.215Z,19.23
2023-02-01T04:48:11.554Z,19.21
2023-02-01T04:50:40.993Z,19.16
2023-02-01T04:53:11.059Z,19.12
2023-02-01T04:55:40.986Z,19.12
2023-02-01T04:58:11.010Z,19.08
2023-02-01T05:00:41.148Z,19.07
2023-02-01T05:03:10.962Z,19.05
2023-02-01T05:05:40.232Z,19.03
2023-02-01T05:08:10.161Z,19.01
2023-02-01T05:10:40.153Z,18.99
2023-02-01T05:13:28.603Z,18.99
2023-02-01T05:15:57.951Z,18.96
2023-02-01T05:18:27.233Z,18.96
2023-02-01T05:20:56.546Z,18.95
2023-02-01T05:23:25.914Z,18.91
2023-02-01T05:25:55.213Z,18.91
2023-02-01T05:28:25.061Z,18.90
2023-02-01T05:30:54.666Z,18.90
2023-02-01T05:33:24.012Z,18.88
2023-02-01T05:35:53.257Z,18.87
2023-02-01T05:38:22.605Z,18.84
2023-02-01T05:40:52.042Z,18.84
2023-02-01T05:43:21.484Z,18.84
2023-02-01T05:45:51.178Z,18.82
2023-02-01T05:48:20.322Z,18.81
2023-02-01T05:50:49.468Z,18.84
2023-02-01T05:53:18.726Z,18.79
2023-02-01T05:55:48.050Z,18.79
2023-02-01T05:58:17.542Z,18.79
2023-02-01T06:00:48.136Z,18.79
2023-02-01T06:03:17.598Z,18.78
2023-02-01T06:05:47.077Z,18.75
2023-02-01T06:08:16.565Z,18.76
2023-02-01T06:10:46.522Z,18.74
2023-02-01T06:13:16.615Z,18.74
2023-02-01T06:15:46.239Z,18.75
2023-02-01T06:18:16.755Z,18.72
2023-02-01T06:20:46.108Z,18.70
2023-02-01T06:23:15.423Z,18.76
2023-02-01T06:25:44.657Z,18.84
2023-02-01T06:28:13.912Z,18.87
2023-02-01T06:30:44.649Z,18.90
2023-02-01T06:33:14.026Z,18.94
2023-02-01T06:35:44.231Z,18.95
2023-02-01T06:38:13.829Z,18.96
2023-02-01T06:40:44.163Z,18.98
2023-02-01T06:43:13.411Z,19.00
2023-02-01T06:45:43.845Z,19.00
2023-02-01T06:48:13.099Z,19.04
2023-02-01T06:50:43.029Z,19.13
2023-02-01T06:53:13.043Z,19.15
2023-02-01T06:55:42.238Z,19.13
2023-02-01T06:58:11.339Z,19.10
2023-02-01T07:00:41.322Z,19.11
2023-02-01T07:03:11.279Z,19.09
2023-02-01T07:05:41.343Z,19.10
2023-02-01T07:08:11.672Z,19.09
2023-02-01T07:10:41.225Z,19.10
2023-02-01T07:13:11.301Z,19.08
2023-02-01T07:15:41.514Z,19.08
2023-02-01T07:18:11.540Z,19.08
2023-02-01T07:20:41.342Z,19.08
2023-02-01T07:23:12.850Z,19.07
2023-02-01T07:25:42.215Z,19.06
2023-02-01T07:28:12.529Z,19.06
2023-02-01T07:30:42.461Z,19.07
2023-02-01T07:33:12.394Z,19.06
2023-02-01T07:35:42.625Z,19.06
2023-02-01T07:38:12.190Z,19.05
2023-02-01T07:40:42.316Z,19.05
2023-02-01T07:43:12.243Z,19.05
2023-02-01T07:45:42.300Z,19.05
2023-02-01T07:48:12.298Z,19.05
2023-02-01T07:50:42.350Z,19.04
2023-02-01T07:53:12.328Z,19.04
2023-02-01T07:55:42.276Z,19.02
2023-02-01T07:58:12.499Z,19.03
2023-02-01T08:00:59.825Z,19.02
2023-02-01T08:03:29.097Z,19.03
2023-02-01T08:05:58.541Z,19.06
2023-02-01T08:08:27.706Z,19.03
2023-02-01T08:11:00.502Z,19.01
2023-02-01T08:13:29.831Z,19.00
2023-02-01T08:16:02.334Z,19.00
2023-02-01T08:18:31.589Z,18.97
2023-02-01T08:21:02.192Z,18.96
2023-02-01T08:23:31.327Z,18.94
2023-02-01T08:26:14.545Z,18.94
2023-02-01T08:28:44.472Z,18.91
2023-02-01T08:31:16.128Z,18.90
2023-02-01T08:33:45.622Z,18.90
2023-02-01T08:36:14.869Z,18.90
2023-02-01T08:38:44.218Z,18.89
2023-02-01T08:41:14.293Z,18.89
2023-02-01T08:43:43.576Z,18.88
2023-02-01T08:46:15.727Z,18.87
2023-02-01T08:48:44.863Z,18.88
2023-02-01T08:51:14.258Z,18.84
2023-02-01T08:53:43.589Z,18.84
2023-02-01T08:56:13.606Z,18.82
2023-02-01T08:58:43.312Z,18.81
2023-02-01T09:01:13.758Z,18.82
2023-02-01T09:03:43.985Z,18.79
2023-02-01T09:06:13.692Z,18.77
2023-02-01T09:08:43.524Z,18.78
2023-02-01T09:11:20.758Z,18.76
2023-02-01T09:13:50.075Z,18.76
2023-02-01T09:16:20.147Z,18.75
2023-02-01T09:18:55.966Z,18.75
2023-02-01T09:21:19.943Z,18.72
2023-02-01T09:23:50.529Z,18.73
2023-02-01T09:26:22.848Z,18.70
2023-02-01T09:28:50.282Z,18.70
2023-02-01T09:31:19.682Z,18.70
2023-02-01T09:33:49.010Z,18.68
2023-02-01T09:36:18.416Z,18.69
2023-02-01T09:38:52.795Z,18.67
2023-02-01T09:41:28.658Z,18.66
2023-02-01T09:44:15.518Z,18.69
2023-02-01T09:46:44.768Z,18.68
2023-02-01T09:49:15.313Z,18.67
2023-02-01T09:51:45.878Z,18.66
2023-02-01T09:54:16.640Z,18.62
2023-02-01T09:56:52.133Z,18.57
2023-02-01T09:59:23.892Z,18.55
2023-02-01T10:01:53.255Z,18.51
2023-02-01T10:04:22.505Z,18.50
2023-02-01T10:07:02.055Z,18.52
2023-02-01T10:09:33.225Z,18.50
2023-02-01T10:12:22.061Z,18.47
2023-02-01T10:15:09.139Z,18.48
2023-02-01T10:17:39.675Z,18.41
2023-02-01T10:20:13.294Z,18.45
2023-02-01T10:23:19.139Z,18.48
2023-02-01T10:25:26.813Z,18.43
2023-02-01T10:27:56.882Z,18.45
2023-02-01T10:30:26.813Z,18.36
2023-02-01T10:32:57.713Z,18.45
2023-02-01T10:35:31.209Z,18.42
2023-02-01T10:38:06.750Z,18.46
2023-02-01T10:40:35.901Z,18.45
2023-02-01T10:43:05.150Z,18.42
2023-02-01T10:45:35.439Z,18.39
2023-02-01T10:48:05.926Z,18.39
2023-02-01T10:50:53.167Z,18.41
2023-02-01T10:53:23.675Z,18.39
2023-02-01T10:55:53.314Z,18.38
2023-02-01T10:58:23.320Z,18.40
2023-02-01T11:00:53.986Z,18.40
2023-02-01T11:03:24.266Z,18.40
2023-02-01T11:05:53.509Z,18.39
2023-02-01T11:08:23.097Z,18.40
2023-02-01T11:10:53.721Z,18.38
2023-02-01T11:13:23.124Z,18.39
2023-02-01T11:15:55.500Z,18.41
2023-02-01T11:18:25.686Z,18.40
2023-02-01T11:20:54.933Z,18.39
2023-02-01T11:23:27.498Z,18.40
2023-02-01T11:25:57.159Z,18.42
2023-02-01T11:28:27.739Z,18.40
2023-02-01T11:30:57.881Z,18.39
2023-02-01T11:33:29.851Z,18.39
2023-02-01T11:36:00.168Z,18.39
2023-02-01T11:38:32.627Z,18.40
2023-02-01T11:41:19.468Z,18.39
2023-02-01T11:43:57.851Z,18.41
2023-02-01T11:46:29.074Z,18.33
2023-02-01T11:48:58.420Z,18.45
2023-02-01T11:51:35.437Z,18.56
2023-02-01T11:54:06.424Z,18.65
2023-02-01T11:56:52.409Z,18.71
2023-02-01T11:59:33.635Z,18.82
2023-02-01T12:02:07.268Z,19.05
2023-02-01T12:04:40.809Z,19.18
2023-02-01T12:07:17.838Z,19.22
2023-02-01T12:09:58.184Z,19.28
2023-02-01T12:12:38.511Z,19.30
2023-02-01T12:15:24.135Z,19.33
2023-02-01T12:18:01.679Z,19.35
2023-02-01T12:20:35.183Z,19.39
2023-02-01T12:23:11.735Z,19.39
2023-02-01T12:25:51.550Z,19.39
2023-02-01T12:28:37.317Z,19.42
2023-02-01T12:31:08.291Z,19.40
2023-02-01T12:33:42.551Z,19.40
2023-02-01T12:36:13.820Z,19.41
2023-02-01T12:39:00.377Z,19.40
2023-02-01T12:41:33.913Z,19.38
2023-02-01T12:44:20.780Z,19.33
2023-02-01T12:46:54.312Z,19.30
2023-02-01T12:49:27.997Z,19.31
2023-02-01T12:51:58.627Z,19.36
2023-02-01T12:54:29.251Z,19.36
2023-02-01T12:56:59.984Z,19.35
2023-02-01T12:59:42.035Z,19.30
2023-02-01T13:02:14.463Z,19.26
2023-02-01T13:04:53.907Z,19.23
2023-02-01T13:07:28.428Z,19.21
2023-02-01T13:09:59.038Z,19.17
2023-02-01T13:12:29.644Z,19.17
2023-02-01T13:15:00.155Z,19.24
2023-02-01T13:17:34.060Z,19.26
2023-02-01T13:20:07.745Z,19.23
2023-02-01T13:22:45.486Z,19.17
2023-02-01T13:25:18.973Z,19.15
2023-02-01T13:27:48.296Z,19.15
2023-02-01T13:30:20.197Z,19.11
2023-02-01T13:33:51.210Z,19.09
2023-02-01T13:35:28.635Z,19.07
2023-02-01T13:38:17.097Z,19.07
2023-02-01T13:40:50.873Z,19.05
2023-02-01T13:43:24.591Z,19.11
2023-02-01T13:45:54.356Z,19.15
2023-02-01T13:48:27.947Z,19.10
2023-02-01T13:50:58.459Z,19.07
2023-02-01T13:53:31.933Z,19.01
2023-02-01T13:56:02.188Z,19.05
2023-02-01T13:58:38.322Z,19.07
2023-02-01T14:01:27.024Z,19.07
2023-02-01T14:03:56.824Z,19.04
2023-02-01T14:06:30.351Z,18.99
2023-02-01T14:09:15.081Z,18.96
2023-02-01T14:11:45.062Z,18.94
2023-02-01T14:14:21.867Z,18.94
2023-02-01T14:16:58.564Z,18.93
2023-02-01T14:19:28.441Z,18.94
2023-02-01T14:22:03.876Z,18.95
2023-02-01T14:24:33.883Z,18.94
2023-02-01T14:27:04.784Z,18.89
2023-02-01T14:29:34.555Z,18.90
2023-02-01T14:32:11.973Z,18.86
2023-02-01T14:34:53.550Z,18.84
2023-02-01T14:37:24.153Z,18.82
2023-02-01T14:40:03.926Z,18.86
2023-02-01T14:42:34.673Z,18.83
2023-02-01T14:45:28.082Z,18.81
2023-02-01T14:47:57.936Z,18.80
2023-02-01T14:50:30.935Z,18.79
2023-02-01T14:53:14.793Z,18.77
2023-02-01T14:55:45.397Z,18.77
2023-02-01T14:58:20.492Z,18.76
2023-02-01T15:00:57.036Z,18.75
2023-02-01T15:03:33.493Z,18.72
2023-02-01T15:06:07.036Z,18.74
2023-02-01T15:08:37.128Z,18.73
2023-02-01T15:11:08.472Z,18.72
2023-02-01T15:13:37.661Z,18.69
2023-02-01T15:16:13.425Z,18.72
2023-02-01T15:18:43.713Z,18.70
2023-02-01T15:21:29.720Z,18.70
2023-02-01T15:23:50.807Z,18.68
2023-02-01T15:26:30.443Z,18.67
2023-02-01T15:29:00.613Z,18.66
2023-02-01T15:31:37.436Z,18.66
2023-02-01T15:34:06.950Z,18.64
2023-02-01T15:36:37.088Z,18.63
2023-02-01T15:39:18.101Z,18.63
2023-02-01T15:41:51.092Z,18.61
2023-02-01T15:44:24.640Z,18.62
2023-02-01T15:46:53.911Z,18.61
2023-02-01T15:49:31.113Z,18.62
2023-02-01T15:52:01.057Z,18.63
2023-02-01T15:54:32.766Z,18.63
2023-02-01T15:57:03.084Z,18.62
2023-02-01T15:59:35.549Z,18.61
2023-02-01T16:02:04.968Z,18.63
2023-02-01T16:04:34.890Z,18.62
2023-02-01T16:07:05.876Z,18.63
2023-02-01T16:09:41.994Z,18.61
2023-02-01T16:12:19.123Z,18.62
2023-02-01T16:14:48.318Z,18.59
2023-02-01T16:17:17.473Z,18.61
2023-02-01T16:19:46.823Z,18.61
2023-02-01T16:22:16.038Z,18.61
2023-02-01T16:24:45.574Z,18.53
2023-02-01T16:27:14.715Z,18.55
2023-02-01T16:29:44.695Z,18.53
2023-02-01T16:32:21.469Z,18.47
2023-02-01T16:34:50.896Z,18.47
2023-02-01T16:37:21.443Z,18.47
2023-02-01T16:39:50.698Z,18.47
2023-02-01T16:42:19.897Z,18.44
2023-02-01T16:44:49.186Z,18.40
2023-02-01T16:47:22.308Z,18.42
2023-02-01T16:49:50.694Z,18.44
2023-02-01T16:52:24.062Z,18.44
2023-02-01T16:54:53.339Z,18.46
2023-02-01T16:57:23.935Z,18.43
2023-02-01T16:59:53.112Z,18.37
2023-02-01T17:02:23.734Z,18.40
2023-02-01T17:04:53.127Z,18.38
2023-02-01T17:07:22.381Z,18.39
2023-02-01T17:09:53.812Z,18.36
2023-02-01T17:12:26.800Z,18.38
2023-02-01T17:14:56.042Z,18.36
2023-02-01T17:17:37.694Z,18.34
2023-02-01T17:19:56.259Z,18.36
2023-02-01T17:22:25.518Z,18.37
2023-02-01T17:24:54.959Z,18.39
2023-02-01T17:27:27.192Z,18.38
2023-02-01T17:29:58.062Z,18.35
2023-02-01T17:32:27.590Z,18.34
2023-02-01T17:34:59.349Z,18.31
2023-02-01T17:37:29.921Z,18.39
2023-02-01T17:39:59.169Z,18.38
2023-02-01T17:42:28.912Z,18.42
2023-02-01T17:45:04.562Z,18.37
2023-02-01T17:47:34.365Z,18.33
2023-02-01T17:50:03.914Z,18.33
2023-02-01T17:52:33.189Z,18.37
2023-02-01T17:55:02.961Z,18.35
2023-02-01T17:57:32.051Z,18.39
2023-02-01T18:00:01.169Z,18.46
2023-02-01T18:02:30.495Z,18.52
2023-02-01T18:04:59.921Z,18.53
2023-02-01T18:07:29.213Z,18.57
2023-02-01T18:09:58.594Z,18.65
2023-02-01T18:12:27.915Z,18.70
2023-02-01T18:14:58.263Z,18.64
2023-02-01T18:17:27.614Z,18.99
2023-02-01T18:19:56.951Z,19.01
2023-02-01T18:22:26.321Z,19.30
2023-02-01T18:24:55.683Z,19.36
2023-02-01T18:27:27.128Z,19.33
2023-02-01T18:29:55.693Z,19.41
2023-02-01T18:32:24.905Z,19.53
2023-02-01T18:34:54.098Z,19.65
2023-02-01T18:37:23.303Z,19.74
2023-02-01T18:39:52.582Z,19.92
2023-02-01T18:42:21.945Z,20.04
2023-02-01T18:44:51.117Z,19.88
2023-02-01T18:47:20.519Z,20.09
2023-02-01T18:49:49.836Z,20.13
2023-02-01T18:52:19.081Z,20.08
2023-02-01T18:54:59.131Z,20.31
2023-02-01T18:57:19.192Z,20.20
2023-02-01T18:59:48.840Z,20.20
2023-02-01T19:02:18.173Z,20.08
2023-02-01T19:04:47.695Z,20.18
2023-02-01T19:07:17.137Z,20.27
2023-02-01T19:09:46.321Z,20.17
2023-02-01T19:12:15.732Z,20.31
2023-02-01T19:14:45.174Z,20.26
2023-02-01T19:17:14.894Z,20.12
2023-02-01T19:19:45.375Z,20.21
2023-02-01T19:22:15.019Z,20.42
2023-02-01T19:24:44.997Z,20.34
2023-02-01T19:27:14.974Z,20.33
2023-02-01T19:29:45.851Z,20.48
2023-02-01T19:32:15.327Z,20.60
2023-02-01T19:34:45.067Z,20.47
2023-02-01T19:37:15.083Z,20.44
2023-02-01T19:39:45.048Z,20.52
2023-02-01T19:42:15.115Z,20.57
2023-02-01T19:44:44.539Z,20.60
2023-02-01T19:47:14.067Z,20.83
2023-02-01T19:49:44.500Z,20.64
2023-02-01T19:52:14.056Z,20.57
2023-02-01T19:54:44.199Z,20.49
2023-02-01T19:57:14.510Z,20.62
2023-02-01T19:59:44.125Z,20.61
2023-02-01T20:02:15.637Z,20.78
2023-02-01T20:04:44.962Z,20.58
2023-02-01T20:07:14.236Z,20.52
2023-02-01T20:09:44.346Z,20.52
2023-02-01T20:12:14.336Z,20.52
2023-02-01T20:14:44.473Z,20.54
2023-02-01T20:17:18.779Z,20.52
2023-02-01T20:19:48.145Z,20.61
2023-02-01T20:22:17.771Z,20.43
2023-02-01T20:24:49.326Z,20.43
2023-02-01T20:27:19.669Z,20.45
2023-02-01T20:29:49.177Z,20.37
2023-02-01T20:32:18.475Z,20.26
2023-02-01T20:34:49.568Z,20.20
2023-02-01T20:37:19.659Z,20.20
2023-02-01T20:39:48.882Z,20.18
2023-02-01T20:42:20.004Z,20.19
2023-02-01T20:44:49.227Z,20.21
2023-02-01T20:47:18.487Z,20.21
2023-02-01T20:49:48.005Z,20.20
2023-02-01T20:52:17.294Z,20.18
2023-02-01T20:54:46.553Z,20.19
2023-02-01T20:57:16.166Z,20.21
2023-02-01T20:59:45.447Z,20.22
2023-02-01T21:02:15.671Z,20.26
2023-02-01T21:04:45.519Z,20.27
2023-02-01T21:07:15.432Z,20.30
2023-02-01T21:09:45.856Z,20.33
2023-02-01T21:12:15.897Z,20.34
2023-02-01T21:14:45.275Z,20.65
2023-02-01T21:17:15.296Z,20.47
2023-02-01T21:19:45.389Z,20.45
2023-02-01T21:22:15.480Z,20.46
2023-02-01T21:24:45.361Z,20.44
2023-02-01T21:27:15.493Z,20.43
2023-02-01T21:29:44.920Z,20.42
2023-02-01T21:32:14.540Z,20.40
2023-02-01T21:34:44.523Z,20.42
2023-02-01T21:37:14.483Z,20.38
2023-02-01T21:39:44.500Z,20.31
2023-02-01T21:42:18.515Z,20.32
2023-02-01T21:44:48.404Z,20.67
2023-02-01T21:47:18.316Z,21.17
2023-02-01T21:49:48.014Z,21.02
2023-02-01T21:52:17.524Z,21.24
2023-02-01T21:54:46.787Z,21.18
2023-02-01T21:57:16.129Z,20.82
2023-02-01T21:59:45.328Z,21.10
2023-02-01T22:02:15.883Z,21.35
2023-02-01T22:04:45.532Z,22.11
2023-02-01T22:07:15.340Z,22.25
2023-02-01T22:09:45.422Z,22.48
2023-02-01T22:12:15.425Z,22.49
2023-02-01T22:14:46.830Z,21.84
2023-02-01T22:17:16.011Z,22.07
2023-02-01T22:19:45.537Z,22.28
2023-02-01T22:22:14.699Z,22.65
2023-02-01T22:24:44.535Z,22.49
2023-02-01T22:27:14.967Z,22.43
2023-02-01T22:29:44.789Z,22.41
2023-02-01T22:32:14.866Z,22.69
2023-02-01T22:34:44.803Z,22.50
2023-02-01T22:37:14.604Z,22.45
2023-02-01T22:39:44.608Z,22.46
2023-02-01T22:42:14.716Z,22.35
2023-02-01T22:44:46.135Z,22.34
2023-02-01T22:47:15.427Z,22.32
2023-02-01T22:49:45.801Z,22.26
2023-02-01T22:52:15.953Z,22.27
2023-02-01T22:54:45.591Z,22.22
2023-02-01T22:57:16.343Z,22.11
2023-02-01T22:59:45.635Z,21.92
2023-02-01T23:02:15.646Z,21.79
2023-02-01T23:04:45.738Z,21.66
2023-02-01T23:07:15.915Z,21.60
2023-02-01T23:09:45.608Z,21.47
2023-02-01T23:12:14.881Z,21.48
2023-02-01T23:14:45.917Z,21.41
2023-02-01T23:17:15.708Z,21.34
2023-02-01T23:19:45.590Z,21.19
2023-02-01T23:22:15.316Z,21.24
2023-02-01T23:24:44.884Z,20.93
2023-02-01T23:27:14.606Z,20.97
2023-02-01T23:29:44.725Z,20.95
2023-02-01T23:32:14.670Z,20.92
2023-02-01T23:34:44.600Z,20.93
2023-02-01T23:37:15.995Z,20.89
2023-02-01T23:39:45.314Z,20.87
2023-02-01T23:42:14.728Z,20.88
2023-02-01T23:44:44.689Z,20.87
2023-02-01T23:47:14.751Z,20.89
2023-02-01T23:49:44.709Z,20.89
2023-02-01T23:52:14.748Z,20.87
2023-02-01T23:54:44.822Z,20.88
2023-02-01T23:57:14.687Z,20.88
2023-02-01T23:59:44.670Z,20.88
